createdAt,value
2022-10-15T00:02:02.296Z,25.00
2022-10-15T00:07:09.496Z,25.00
2022-10-15T00:12:16.639Z,25.00
2022-10-15T00:17:24.346Z,25.00
2022-10-15T00:22:30.990Z,25.10
2022-10-15T00:27:38.205Z,25.10
2022-10-15T00:32:45.409Z,25.10
2022-10-15T00:37:52.654Z,25.00
2022-10-15T00:42:59.812Z,25.10
2022-10-15T00:48:07.050Z,25.00
2022-10-15T00:53:14.210Z,25.00
2022-10-15T00:58:21.439Z,25.00
2022-10-15T01:03:28.700Z,25.00
2022-10-15T01:08:35.903Z,24.90
2022-10-15T01:13:43.154Z,24.90
2022-10-15T01:18:50.377Z,24.90
2022-10-15T01:23:57.559Z,24.90
2022-10-15T01:29:04.870Z,24.80
2022-10-15T01:34:14.970Z,24.80
2022-10-15T01:39:19.386Z,24.80
2022-10-15T01:44:26.563Z,24.80
2022-10-15T01:49:33.813Z,24.70
2022-10-15T01:54:40.989Z,24.70
2022-10-15T01:59:48.199Z,24.70
2022-10-15T02:04:55.421Z,24.70
2022-10-15T02:10:02.612Z,24.70
2022-10-15T02:15:09.813Z,24.60
2022-10-15T02:20:17.000Z,24.60
2022-10-15T02:25:24.220Z,24.60
2022-10-15T02:30:31.437Z,24.60
2022-10-15T02:35:38.678Z,24.50
2022-10-15T02:40:47.674Z,24.50
2022-10-15T02:45:54.894Z,24.40
2022-10-15T02:51:02.105Z,24.50
2022-10-15T02:56:09.282Z,24.40
2022-10-15T03:01:16.538Z,24.40
2022-10-15T03:06:23.606Z,24.40
2022-10-15T03:11:30.785Z,24.40
2022-10-15T03:16:37.935Z,24.40
2022-10-15T03:21:45.120Z,24.30
2022-10-15T03:26:52.300Z,24.30
2022-10-15T03:31:59.507Z,24.20
2022-10-15T03:37:06.803Z,24.30
2022-10-15T03:42:13.986Z,24.20
2022-10-15T03:47:21.195Z,24.20
2022-10-15T03:52:28.453Z,24.20
2022-10-15T03:57:35.623Z,24.20
2022-10-15T04:02:42.850Z,24.20
2022-10-15T04:07:50.073Z,24.20
2022-10-15T04:12:57.300Z,24.10
2022-10-15T04:18:04.556Z,24.10
2022-10-15T04:23:11.777Z,24.10
2022-10-15T04:28:19.055Z,24.10
2022-10-15T04:33:26.289Z,24.10
2022-10-15T04:38:33.494Z,24.10
2022-10-15T04:43:40.646Z,24.10
2022-10-15T04:48:47.934Z,24.10
2022-10-15T04:53:55.219Z,24.10
2022-10-15T04:59:02.403Z,24.10
2022-10-15T05:04:09.630Z,24.00
2022-10-15T05:09:16.909Z,24.00
2022-10-15T05:14:24.088Z,24.00
2022-10-15T05:19:31.344Z,24.00
2022-10-15T05:24:38.602Z,24.00
2022-10-15T05:29:45.712Z,23.90
2022-10-15T05:34:52.948Z,24.00
2022-10-15T05:40:00.177Z,23.90
2022-10-15T05:45:07.405Z,23.90
2022-10-15T05:50:14.607Z,23.90
2022-10-15T05:55:21.882Z,23.90
2022-10-15T06:00:29.085Z,23.90
2022-10-15T06:05:36.259Z,23.90
2022-10-15T06:10:43.485Z,23.90
2022-10-15T06:15:50.673Z,23.80
2022-10-15T06:20:57.935Z,23.80
2022-10-15T06:26:05.404Z,23.80
2022-10-15T06:31:12.498Z,23.80
2022-10-15T06:36:19.704Z,23.80
2022-10-15T06:41:27.165Z,23.80
2022-10-15T06:46:34.132Z,23.80
2022-10-15T06:51:41.339Z,23.80
2022-10-15T06:56:48.792Z,23.80
2022-10-15T07:01:56.021Z,23.80
2022-10-15T07:07:03.259Z,23.80
2022-10-15T07:12:10.487Z,23.80
2022-10-15T07:17:17.659Z,23.80
2022-10-15T07:22:25.099Z,23.80
2022-10-15T07:27:32.068Z,23.80
2022-10-15T07:32:39.265Z,23.70
2022-10-15T07:37:46.441Z,23.80
2022-10-15T07:42:53.729Z,23.70
2022-10-15T07:48:00.881Z,23.70
2022-10-15T07:53:08.068Z,23.80
2022-10-15T07:58:15.300Z,23.80
2022-10-15T08:03:22.485Z,23.80
2022-10-15T08:08:32.443Z,23.80
2022-10-15T08:13:40.833Z,23.80
2022-10-15T08:18:48.141Z,23.80
2022-10-15T08:23:55.293Z,23.70
2022-10-15T08:29:02.604Z,23.80
2022-10-15T08:34:09.693Z,23.70
2022-10-15T08:39:16.872Z,23.80
2022-10-15T08:44:24.151Z,23.80
2022-10-15T08:49:31.317Z,23.80
2022-10-15T08:54:38.498Z,23.80
2022-10-15T08:59:45.729Z,23.80
2022-10-15T09:04:52.978Z,23.80
2022-10-15T09:10:00.151Z,23.80
2022-10-15T09:15:07.394Z,23.80
2022-10-15T09:20:14.558Z,23.80
2022-10-15T09:25:21.762Z,23.80
2022-10-15T09:30:28.995Z,23.80
2022-10-15T09:35:36.426Z,23.70
2022-10-15T09:40:43.670Z,23.70
2022-10-15T09:45:50.865Z,23.70
2022-10-15T09:50:58.074Z,23.70
2022-10-15T09:56:05.291Z,23.60
2022-10-15T10:01:12.520Z,23.60
2022-10-15T10:06:19.701Z,23.60
2022-10-15T10:11:26.894Z,23.60
2022-10-15T10:16:34.184Z,23.70
2022-10-15T10:21:41.333Z,23.70
2022-10-15T10:26:48.670Z,23.60
2022-10-15T10:31:55.935Z,23.60
2022-10-15T10:37:03.145Z,23.60
2022-10-15T10:42:10.360Z,23.70
2022-10-15T10:47:17.531Z,23.70
2022-10-15T10:52:24.776Z,23.80
2022-10-15T10:57:31.954Z,23.80
2022-10-15T11:02:39.193Z,23.80
2022-10-15T11:07:46.542Z,23.80
2022-10-15T11:12:53.783Z,23.80
2022-10-15T11:18:01.013Z,23.80
2022-10-15T11:23:08.209Z,23.80
2022-10-15T11:28:15.379Z,23.80
2022-10-15T11:33:24.050Z,23.80
2022-10-15T11:38:31.229Z,23.80
2022-10-15T11:43:38.440Z,23.80
2022-10-15T11:48:45.637Z,23.80
2022-10-15T11:53:53.858Z,23.80
2022-10-15T11:59:01.046Z,23.80
2022-10-15T12:04:08.358Z,23.80
2022-10-15T12:09:15.489Z,23.90
2022-10-15T12:14:22.683Z,23.80
2022-10-15T12:19:29.924Z,23.80
2022-10-15T12:24:37.092Z,23.80
2022-10-15T12:29:44.294Z,23.80
2022-10-15T12:34:51.507Z,23.80
2022-10-15T12:39:58.627Z,23.80
2022-10-15T12:45:05.902Z,23.80
2022-10-15T12:50:13.751Z,23.80
2022-10-15T12:55:20.962Z,23.80
2022-10-15T13:00:28.357Z,23.80
2022-10-15T13:05:35.566Z,23.80
2022-10-15T13:10:42.806Z,23.80
2022-10-15T13:15:52.028Z,23.70
2022-10-15T13:20:57.287Z,23.70
2022-10-15T13:26:04.480Z,23.70
2022-10-15T13:31:11.751Z,23.70
2022-10-15T13:36:19.005Z,23.70
2022-10-15T13:41:26.179Z,23.70
2022-10-15T13:46:33.400Z,23.70
2022-10-15T13:51:40.620Z,23.70
2022-10-15T13:56:50.298Z,23.70
2022-10-15T14:01:55.002Z,23.70
2022-10-15T14:07:02.865Z,23.70
2022-10-15T14:12:09.419Z,23.70
2022-10-15T14:17:16.587Z,23.80
2022-10-15T14:22:24.060Z,23.80
2022-10-15T14:27:31.236Z,23.80
2022-10-15T14:32:38.451Z,23.80
2022-10-15T14:37:45.679Z,23.80
2022-10-15T14:42:52.869Z,23.80
2022-10-15T14:48:00.101Z,23.80
2022-10-15T14:53:07.408Z,23.80
2022-10-15T14:58:14.686Z,23.80
2022-10-15T15:03:21.949Z,23.80
2022-10-15T15:08:29.130Z,23.80
2022-10-15T15:13:36.365Z,23.80
2022-10-15T15:18:43.588Z,23.80
2022-10-15T15:23:50.820Z,23.80
2022-10-15T15:29:00.739Z,23.80
2022-10-15T15:34:07.912Z,23.80
2022-10-15T15:39:15.267Z,23.80
2022-10-15T15:44:22.490Z,23.80
2022-10-15T15:49:29.687Z,23.80
2022-10-15T15:54:36.974Z,23.70
2022-10-15T15:59:44.091Z,23.70
2022-10-15T16:04:51.299Z,23.70
2022-10-15T16:09:58.502Z,23.70
2022-10-15T16:15:07.854Z,23.70
2022-10-15T16:20:12.928Z,23.70
2022-10-15T16:25:20.178Z,23.80
2022-10-15T16:30:27.320Z,23.80
2022-10-15T16:35:34.528Z,23.80
2022-10-15T16:40:41.822Z,23.80
2022-10-15T16:45:48.957Z,23.80
2022-10-15T16:50:56.155Z,23.90
2022-10-15T16:56:03.369Z,23.90
2022-10-15T17:01:10.540Z,23.90
2022-10-15T17:06:17.767Z,23.90
2022-10-15T17:11:25.169Z,24.00
2022-10-15T17:16:32.384Z,24.00
2022-10-15T17:21:42.447Z,24.00
2022-10-15T17:26:47.514Z,24.00
2022-10-15T17:31:54.913Z,24.00
2022-10-15T17:37:02.422Z,23.90
2022-10-15T17:42:09.766Z,24.00
2022-10-15T17:47:16.920Z,24.00
2022-10-15T17:52:24.156Z,24.00
2022-10-15T17:57:31.667Z,24.00
2022-10-15T18:02:39.315Z,24.00
2022-10-15T18:07:46.971Z,24.00
2022-10-15T18:12:54.323Z,24.00
2022-10-15T18:18:01.791Z,24.00
2022-10-15T18:23:11.458Z,23.90
2022-10-15T18:28:19.127Z,23.90
2022-10-15T18:33:26.785Z,23.90
2022-10-15T18:38:34.295Z,23.90
2022-10-15T18:43:43.163Z,23.90
2022-10-15T18:48:50.655Z,23.90
2022-10-15T18:53:58.163Z,23.90
2022-10-15T18:59:05.625Z,23.90
2022-10-15T19:04:13.081Z,23.90
2022-10-15T19:09:20.394Z,23.90
2022-10-15T19:14:27.933Z,23.90
2022-10-15T19:19:35.267Z,23.90
2022-10-15T19:24:42.438Z,23.90
2022-10-15T19:29:49.656Z,23.90
2022-10-15T19:34:57.136Z,23.90
2022-10-15T19:40:04.443Z,23.80
2022-10-15T19:45:11.701Z,23.80
2022-10-15T19:50:19.055Z,23.80
2022-10-15T19:55:26.455Z,23.80
2022-10-15T20:00:34.002Z,23.90
2022-10-15T20:05:41.349Z,23.80
2022-10-15T20:10:48.543Z,23.80
2022-10-15T20:15:55.871Z,23.80
2022-10-15T20:21:03.086Z,23.90
2022-10-15T20:26:10.518Z,23.90
2022-10-15T20:31:17.918Z,23.90
2022-10-15T20:36:25.140Z,23.90
2022-10-15T20:41:32.337Z,24.00
2022-10-15T20:46:39.619Z,24.00
2022-10-15T20:51:46.814Z,24.10
2022-10-15T20:56:53.999Z,24.10
2022-10-15T21:02:01.198Z,24.10
2022-10-15T21:07:08.550Z,24.10
2022-10-15T21:12:15.782Z,24.10
2022-10-15T21:17:23.360Z,24.20
2022-10-15T21:22:30.197Z,24.20
2022-10-15T21:27:37.464Z,24.20
2022-10-15T21:32:44.730Z,24.20
2022-10-15T21:37:51.977Z,24.20
2022-10-15T21:42:59.200Z,24.20
2022-10-15T21:48:09.192Z,24.20
2022-10-15T21:53:16.377Z,24.10
2022-10-15T21:58:23.576Z,24.20
2022-10-15T22:03:30.809Z,24.10
2022-10-15T22:08:38.003Z,24.10
2022-10-15T22:13:47.133Z,24.10
2022-10-15T22:18:54.377Z,24.10
2022-10-15T22:24:01.567Z,24.10
2022-10-15T22:29:08.808Z,24.10
2022-10-15T22:34:15.969Z,24.10
2022-10-15T22:39:23.108Z,24.10
2022-10-15T22:44:30.362Z,24.10
2022-10-15T22:49:37.543Z,24.00
2022-10-15T22:54:44.769Z,24.00
2022-10-15T22:59:55.833Z,24.00
2022-10-15T23:04:59.129Z,24.00
2022-10-15T23:10:06.266Z,24.00
2022-10-15T23:15:13.494Z,24.00
2022-10-15T23:20:20.728Z,24.00
2022-10-15T23:25:28.010Z,23.90
2022-10-15T23:30:35.228Z,23.90
2022-10-15T23:35:42.562Z,23.90
2022-10-15T23:40:49.726Z,23.90
2022-10-15T23:45:56.890Z,23.90
2022-10-15T23:51:04.182Z,23.90
2022-10-15T23:56:11.346Z,23.80
